createdAt,value
2022-09-10T00:01:44.069Z,12.00
2022-09-10T00:04:13.651Z,12.00
2022-09-10T00:06:42.318Z,12.00
2022-09-10T00:09:11.891Z,11.90
2022-09-10T00:11:41.961Z,11.90
2022-09-10T00:14:15.310Z,11.90
2022-09-10T00:16:44.603Z,11.90
2022-09-10T00:19:13.034Z,11.90
2022-09-10T00:21:40.982Z,11.80
2022-09-10T00:24:09.042Z,11.80
2022-09-10T00:26:39.488Z,11.70
2022-09-10T00:29:09.934Z,11.70
2022-09-10T00:31:38.302Z,11.60
2022-09-10T00:34:09.139Z,11.70
2022-09-10T00:36:39.784Z,11.70
2022-09-10T00:39:10.193Z,11.70
2022-09-10T00:41:40.407Z,11.60
2022-09-10T00:44:35.575Z,11.60
2022-09-10T00:47:04.330Z,11.60
2022-09-10T00:49:36.905Z,11.60
2022-09-10T00:52:05.621Z,11.60
2022-09-10T00:54:35.742Z,11.60
2022-09-10T00:57:08.085Z,11.50
2022-09-10T00:59:37.318Z,11.50
2022-09-10T01:02:05.731Z,11.50
2022-09-10T01:04:35.353Z,11.50
2022-09-10T01:07:03.809Z,11.50
2022-09-10T01:09:31.746Z,11.50
2022-09-10T01:12:13.049Z,11.50
2022-09-10T01:14:59.314Z,11.50
2022-09-10T01:17:34.893Z,11.50
2022-09-10T01:20:33.645Z,11.50
2022-09-10T01:23:27.179Z,11.50
2022-09-10T01:26:04.733Z,11.50
2022-09-10T01:28:40.034Z,11.60
2022-09-10T01:31:14.317Z,11.60
2022-09-10T01:33:50.372Z,11.60
2022-09-10T01:36:23.013Z,11.70
2022-09-10T01:38:51.726Z,11.70
2022-09-10T01:41:26.069Z,11.80
2022-09-10T01:43:56.233Z,11.90
2022-09-10T01:46:35.982Z,12.00
2022-09-10T01:49:20.042Z,12.00
2022-09-10T01:52:22.160Z,12.10
2022-09-10T01:55:15.915Z,12.10
2022-09-10T01:57:55.352Z,12.10
2022-09-10T02:00:28.888Z,12.10
2022-09-10T02:03:00.896Z,12.10
2022-09-10T02:05:35.233Z,12.20
2022-09-10T02:08:10.233Z,12.20
2022-09-10T02:10:50.558Z,12.20
2022-09-10T02:13:18.666Z,12.20
2022-09-10T02:16:13.738Z,12.20
2022-09-10T02:18:43.677Z,12.20
2022-09-10T02:21:12.633Z,12.20
2022-09-10T02:23:45.583Z,12.20
2022-09-10T02:26:15.548Z,12.20
2022-09-10T02:28:45.052Z,12.20
2022-09-10T02:31:15.501Z,12.20
2022-09-10T02:33:43.543Z,12.10
2022-09-10T02:36:13.273Z,12.10
2022-09-10T02:38:41.384Z,12.10
2022-09-10T02:41:10.446Z,12.00
2022-09-10T02:43:38.706Z,12.00
2022-09-10T02:46:07.919Z,11.90
2022-09-10T02:48:39.983Z,11.90
2022-09-10T02:51:09.262Z,11.80
2022-09-10T02:53:38.690Z,11.70
2022-09-10T02:56:08.887Z,11.60
2022-09-10T02:58:38.445Z,11.60
2022-09-10T03:01:09.664Z,11.60
2022-09-10T03:03:40.221Z,11.60
2022-09-10T03:06:08.806Z,11.60
2022-09-10T03:08:37.141Z,11.50
2022-09-10T03:11:07.018Z,11.50
2022-09-10T03:13:35.731Z,11.60
2022-09-10T03:16:04.591Z,11.60
2022-09-10T03:18:35.285Z,11.60
2022-09-10T03:21:13.099Z,11.60
2022-09-10T03:23:41.426Z,11.60
2022-09-10T03:26:10.838Z,11.60
2022-09-10T03:28:39.246Z,11.60
2022-09-10T03:31:09.891Z,11.60
2022-09-10T03:33:43.484Z,11.70
2022-09-10T03:36:14.456Z,11.70
2022-09-10T03:38:44.404Z,11.80
2022-09-10T03:41:12.494Z,11.80
2022-09-10T03:43:40.624Z,11.90
2022-09-10T03:46:11.091Z,11.90
2022-09-10T03:48:40.946Z,12.00
2022-09-10T03:51:12.077Z,12.10
2022-09-10T03:53:40.998Z,12.20
2022-09-10T03:56:10.605Z,12.20
2022-09-10T03:58:39.107Z,12.20
2022-09-10T04:01:09.361Z,12.30
2022-09-10T04:03:41.078Z,12.30
2022-09-10T04:06:12.681Z,12.40
2022-09-10T04:08:43.311Z,12.40
2022-09-10T04:11:13.814Z,12.40
2022-09-10T04:13:42.096Z,12.50
2022-09-10T04:16:12.163Z,12.50
2022-09-10T04:18:41.363Z,12.60
2022-09-10T04:21:09.890Z,12.60
2022-09-10T04:23:41.370Z,12.60
2022-09-10T04:26:16.725Z,12.60
2022-09-10T04:28:48.609Z,12.70
2022-09-10T04:31:18.244Z,12.70
2022-09-10T04:33:47.257Z,12.60
2022-09-10T04:36:17.208Z,12.70
2022-09-10T04:38:47.169Z,12.70
2022-09-10T04:41:19.497Z,12.80
2022-09-10T04:43:58.454Z,12.80
2022-09-10T04:49:19.384Z,12.90
2022-09-10T04:51:47.483Z,12.90
2022-09-10T04:54:20.255Z,12.90
2022-09-10T04:56:48.643Z,13.00
2022-09-10T04:59:21.336Z,13.00
2022-09-10T05:01:50.335Z,13.00
2022-09-10T05:04:19.089Z,13.10
2022-09-10T05:06:50.294Z,13.20
2022-09-10T05:09:23.015Z,13.20
2022-09-10T05:11:52.419Z,13.10
2022-09-10T05:14:21.897Z,13.10
2022-09-10T05:16:49.970Z,13.10
2022-09-10T05:19:18.724Z,13.10
2022-09-10T05:21:55.857Z,13.20
2022-09-10T05:24:25.689Z,13.10
2022-09-10T05:26:54.138Z,13.10
2022-09-10T05:29:23.397Z,13.20
2022-09-10T05:31:52.156Z,13.50
2022-09-10T05:34:20.430Z,13.80
2022-09-10T05:36:48.744Z,14.00
2022-09-10T05:39:16.836Z,13.90
2022-09-10T05:41:47.013Z,13.80
2022-09-10T05:44:17.789Z,13.60
2022-09-10T05:46:46.603Z,13.50
2022-09-10T05:49:16.905Z,13.50
2022-09-10T05:51:45.092Z,13.50
2022-09-10T05:54:13.747Z,13.40
2022-09-10T05:56:42.571Z,13.40
2022-09-10T05:59:13.199Z,13.40
2022-09-10T06:01:47.663Z,13.50
2022-09-10T06:04:16.670Z,13.60
2022-09-10T06:06:45.608Z,13.60
2022-09-10T06:09:14.993Z,13.70
2022-09-10T06:11:49.336Z,13.70
2022-09-10T06:14:24.567Z,13.70
2022-09-10T06:16:54.649Z,13.70
2022-09-10T06:19:23.298Z,13.60
2022-09-10T06:21:52.344Z,13.50
2022-09-10T06:24:21.072Z,13.50
2022-09-10T06:26:49.910Z,13.50
2022-09-10T06:29:39.448Z,13.50
2022-09-10T06:32:09.714Z,13.40
2022-09-10T06:34:38.033Z,13.30
2022-09-10T06:37:07.137Z,13.30
2022-09-10T06:39:37.775Z,13.30
2022-09-10T06:42:07.488Z,13.20
2022-09-10T06:45:07.084Z,13.10
2022-09-10T06:48:37.273Z,13.00
2022-09-10T06:50:53.707Z,13.10
2022-09-10T06:53:26.222Z,13.10
2022-09-10T06:55:54.494Z,13.10
2022-09-10T06:58:24.979Z,13.20
2022-09-10T07:00:56.046Z,13.30
2022-09-10T07:03:25.475Z,13.20
2022-09-10T07:05:55.606Z,13.30
2022-09-10T07:08:27.312Z,13.60
2022-09-10T07:11:01.147Z,13.80
2022-09-10T07:13:29.366Z,14.00
2022-09-10T07:15:58.990Z,14.20
2022-09-10T07:18:27.722Z,14.30
2022-09-10T07:21:07.862Z,14.50
2022-09-10T07:23:36.472Z,14.60
2022-09-10T07:26:06.083Z,14.40
2022-09-10T07:28:42.366Z,14.40
2022-09-10T07:31:17.658Z,14.40
2022-09-10T07:33:48.429Z,14.50
2022-09-10T07:36:18.718Z,14.60
2022-09-10T07:38:51.908Z,14.80
2022-09-10T07:41:19.776Z,14.90
2022-09-10T07:43:49.460Z,15.00
2022-09-10T07:46:21.201Z,15.20
2022-09-10T07:48:55.595Z,15.60
2022-09-10T07:51:24.762Z,16.30
2022-09-10T07:53:55.104Z,16.70
2022-09-10T07:56:24.372Z,16.80
2022-09-10T07:58:54.120Z,16.40
2022-09-10T08:01:23.917Z,16.00
2022-09-10T08:03:56.960Z,15.70
2022-09-10T08:06:25.096Z,15.50
2022-09-10T08:08:53.863Z,15.20
2022-09-10T08:11:22.234Z,14.90
2022-09-10T08:13:56.791Z,14.90
2022-09-10T08:16:30.541Z,15.00
2022-09-10T08:19:05.852Z,15.20
2022-09-10T08:21:36.990Z,15.40
2022-09-10T08:24:06.427Z,15.60
2022-09-10T08:26:35.581Z,15.60
2022-09-10T08:29:05.665Z,15.50
2022-09-10T08:31:35.009Z,15.60
2022-09-10T08:34:11.343Z,15.50
2022-09-10T08:36:42.135Z,15.60
2022-09-10T08:39:12.088Z,15.80
2022-09-10T08:41:52.221Z,16.10
2022-09-10T08:44:35.884Z,16.20
2022-09-10T08:47:10.713Z,16.20
2022-09-10T08:49:46.185Z,16.40
2022-09-10T08:52:20.544Z,16.80
2022-09-10T08:54:58.987Z,17.30
2022-09-10T08:57:32.860Z,18.00
2022-09-10T09:00:02.670Z,18.80
2022-09-10T09:02:49.512Z,18.70
2022-09-10T09:05:22.823Z,18.70
2022-09-10T09:07:53.928Z,18.60
2022-09-10T09:10:31.330Z,19.10
2022-09-10T09:13:27.874Z,18.80
2022-09-10T09:16:14.731Z,19.10
2022-09-10T09:19:01.872Z,19.00
2022-09-10T09:21:43.195Z,18.90
2022-09-10T09:24:21.207Z,18.70
2022-09-10T09:26:56.524Z,18.40
2022-09-10T09:29:29.829Z,17.90
2022-09-10T09:32:04.069Z,17.80
2022-09-10T09:34:37.331Z,17.60
2022-09-10T09:37:16.718Z,17.50
2022-09-10T09:39:52.908Z,17.40
2022-09-10T09:42:29.391Z,17.60
2022-09-10T09:45:04.405Z,18.50
2022-09-10T09:47:32.383Z,19.70
2022-09-10T09:50:01.765Z,19.50
2022-09-10T09:52:31.737Z,18.70
2022-09-10T09:55:20.409Z,17.80
2022-09-10T09:57:48.312Z,17.10
2022-09-10T10:00:36.581Z,16.60
2022-09-10T10:03:13.870Z,16.20
2022-09-10T10:05:43.360Z,15.60
2022-09-10T10:08:30.073Z,14.90
2022-09-10T10:10:58.429Z,14.40
2022-09-10T10:13:26.301Z,14.30
2022-09-10T10:15:54.221Z,14.40
2022-09-10T10:18:31.659Z,14.60
2022-09-10T10:21:16.185Z,14.80
2022-09-10T10:23:44.817Z,15.10
2022-09-10T10:26:29.008Z,15.30
2022-09-10T10:29:01.125Z,15.60
2022-09-10T10:31:41.923Z,15.80
2022-09-10T10:34:42.006Z,15.80
2022-09-10T10:37:17.722Z,15.60
2022-09-10T10:40:04.666Z,15.70
2022-09-10T10:42:38.040Z,15.60
2022-09-10T10:45:24.575Z,16.00
2022-09-10T10:47:56.360Z,16.40
2022-09-10T10:50:32.912Z,17.10
2022-09-10T10:53:21.481Z,17.70
2022-09-10T10:55:57.108Z,18.20
2022-09-10T10:58:59.504Z,18.40
2022-09-10T11:01:30.025Z,18.50
2022-09-10T11:04:05.286Z,18.50
2022-09-10T11:06:38.890Z,18.80
2022-09-10T11:09:14.423Z,18.80
2022-09-10T11:11:53.502Z,19.00
2022-09-10T11:14:28.167Z,19.10
2022-09-10T11:17:01.096Z,19.30
2022-09-10T11:19:37.222Z,20.30
2022-09-10T11:22:12.019Z,22.20
2022-09-10T11:24:47.437Z,21.60
2022-09-10T11:27:20.199Z,21.50
2022-09-10T11:29:54.382Z,21.20
2022-09-10T11:32:29.482Z,21.50
2022-09-10T11:35:06.541Z,21.90
2022-09-10T11:37:51.077Z,20.90
2022-09-10T11:40:28.416Z,20.50
2022-09-10T11:43:01.097Z,20.40
2022-09-10T11:45:37.171Z,20.70
2022-09-10T11:48:14.618Z,20.00
2022-09-10T11:50:49.777Z,20.10
2022-09-10T11:53:20.823Z,20.10
2022-09-10T11:56:07.405Z,20.30
2022-09-10T11:58:47.721Z,20.40
2022-09-10T12:01:27.646Z,20.60
2022-09-10T12:04:17.203Z,20.10
2022-09-10T12:06:54.908Z,20.00
2022-09-10T12:09:27.612Z,20.00
2022-09-10T12:12:07.021Z,20.00
2022-09-10T12:14:34.987Z,19.70
2022-09-10T12:17:10.424Z,19.50
2022-09-10T12:19:46.273Z,19.50
2022-09-10T12:22:21.396Z,19.40
2022-09-10T12:24:54.616Z,19.60
2022-09-10T12:27:45.148Z,19.60
2022-09-10T12:31:01.021Z,19.30
2022-09-10T12:34:07.697Z,19.30
2022-09-10T12:37:11.482Z,19.40
2022-09-10T12:39:39.648Z,19.20
2022-09-10T12:42:28.493Z,19.10
2022-09-10T12:44:57.519Z,19.30
2022-09-10T12:47:46.794Z,19.10
2022-09-10T12:50:22.800Z,19.20
2022-09-10T12:53:08.092Z,19.20
2022-09-10T12:55:44.422Z,19.10
2022-09-10T12:58:24.598Z,19.20
2022-09-10T13:01:08.554Z,19.60
2022-09-10T13:03:37.710Z,19.90
2022-09-10T13:06:09.711Z,19.60
2022-09-10T13:08:42.361Z,19.50
2022-09-10T13:11:17.555Z,19.60
2022-09-10T13:13:52.533Z,19.70
2022-09-10T13:16:38.187Z,19.50
2022-09-10T13:19:43.022Z,19.60
2022-09-10T13:22:44.119Z,19.60
2022-09-10T13:25:36.657Z,19.50
2022-09-10T13:28:40.723Z,19.80
2022-09-10T13:31:18.368Z,19.80
2022-09-10T13:34:04.169Z,20.10
2022-09-10T13:36:41.544Z,20.40
2022-09-10T13:39:25.408Z,20.60
2022-09-10T13:42:19.198Z,20.60
2022-09-10T13:45:03.173Z,20.70
2022-09-10T13:47:40.914Z,20.50
2022-09-10T13:50:15.170Z,20.70
2022-09-10T13:52:48.085Z,20.80
2022-09-10T13:55:20.599Z,20.40
2022-09-10T13:57:51.142Z,20.00
2022-09-10T14:00:24.460Z,19.80
2022-09-10T14:02:54.635Z,19.80
2022-09-10T14:05:43.171Z,19.90
2022-09-10T14:08:17.692Z,20.00
2022-09-10T14:10:53.236Z,20.20
2022-09-10T14:13:28.314Z,20.50
2022-09-10T14:15:59.749Z,20.70
2022-09-10T14:18:38.041Z,20.50
2022-09-10T14:21:06.774Z,20.20
2022-09-10T14:23:35.749Z,19.80
2022-09-10T14:26:12.170Z,19.60
2022-09-10T14:28:50.433Z,19.80
2022-09-10T14:31:24.262Z,20.40
2022-09-10T14:33:53.774Z,20.60
2022-09-10T14:36:31.178Z,20.60
2022-09-10T14:39:06.363Z,20.80
2022-09-10T14:41:36.831Z,20.80
2022-09-10T14:44:16.585Z,20.70
2022-09-10T14:46:51.538Z,20.60
2022-09-10T14:49:26.593Z,20.10
2022-09-10T14:51:55.024Z,19.80
2022-09-10T14:54:24.421Z,19.80
2022-09-10T14:56:52.641Z,19.60
2022-09-10T14:59:29.255Z,19.50
2022-09-10T15:01:57.619Z,19.50
2022-09-10T15:04:28.193Z,19.50
2022-09-10T15:06:57.191Z,19.40
2022-09-10T15:09:25.803Z,19.30
2022-09-10T15:11:57.168Z,19.20
2022-09-10T15:14:25.618Z,19.40
2022-09-10T15:16:54.091Z,19.20
2022-09-10T15:19:22.713Z,19.00
2022-09-10T15:21:52.546Z,18.80
2022-09-10T15:24:22.591Z,18.60
2022-09-10T15:26:51.157Z,18.40
2022-09-10T15:29:19.698Z,18.20
2022-09-10T15:31:47.579Z,18.00
2022-09-10T15:34:15.457Z,17.90
2022-09-10T15:36:43.965Z,17.80
2022-09-10T15:39:13.832Z,17.80
2022-09-10T15:41:43.578Z,17.80
2022-09-10T15:44:12.498Z,17.80
2022-09-10T15:46:42.075Z,17.80
2022-09-10T15:49:10.208Z,17.50
2022-09-10T15:51:38.582Z,17.10
2022-09-10T15:54:07.152Z,16.50
2022-09-10T15:56:36.650Z,16.10
2022-09-10T15:59:06.483Z,15.70
2022-09-10T16:01:38.279Z,15.50
2022-09-10T16:04:06.816Z,15.40
2022-09-10T16:06:37.639Z,15.20
2022-09-10T16:09:09.096Z,15.10
2022-09-10T16:11:40.525Z,15.10
2022-09-10T16:14:09.976Z,15.00
2022-09-10T16:16:38.239Z,14.90
2022-09-10T16:19:06.785Z,14.80
2022-09-10T16:21:37.142Z,14.60
2022-09-10T16:24:06.699Z,14.60
2022-09-10T16:26:36.920Z,14.70
2022-09-10T16:29:07.983Z,14.70
2022-09-10T16:31:39.036Z,14.80
2022-09-10T16:34:08.807Z,14.80
2022-09-10T16:36:38.425Z,14.70
2022-09-10T16:39:12.018Z,14.80
2022-09-10T16:41:40.794Z,14.90
2022-09-10T16:44:11.010Z,14.90
2022-09-10T16:46:39.435Z,14.80
2022-09-10T16:49:12.385Z,14.70
2022-09-10T16:51:41.277Z,14.70
2022-09-10T16:54:10.092Z,14.70
2022-09-10T16:56:40.046Z,14.70
2022-09-10T16:59:11.207Z,14.80
2022-09-10T17:01:39.095Z,14.80
2022-09-10T17:04:08.080Z,14.80
2022-09-10T17:06:36.812Z,14.70
2022-09-10T17:09:05.012Z,14.60
2022-09-10T17:11:33.700Z,14.60
2022-09-10T17:14:02.572Z,14.50
2022-09-10T17:16:33.434Z,14.40
2022-09-10T17:19:03.459Z,14.30
2022-09-10T17:21:34.514Z,14.30
2022-09-10T17:24:04.053Z,14.20
2022-09-10T17:26:32.922Z,14.20
2022-09-10T17:29:02.562Z,14.20
2022-09-10T17:31:32.361Z,14.10
2022-09-10T17:34:00.904Z,14.10
2022-09-10T17:36:29.337Z,14.00
2022-09-10T17:38:59.005Z,14.00
2022-09-10T17:41:28.168Z,13.90
2022-09-10T17:43:56.681Z,13.90
2022-09-10T17:46:24.803Z,13.90
2022-09-10T17:49:00.908Z,13.80
2022-09-10T17:51:31.227Z,13.80
2022-09-10T17:53:59.145Z,13.70
2022-09-10T17:56:28.091Z,13.70
2022-09-10T17:59:01.430Z,13.70
2022-09-10T18:01:29.766Z,13.70
2022-09-10T18:03:59.024Z,13.60
2022-09-10T18:06:28.977Z,13.60
2022-09-10T18:09:00.218Z,13.60
2022-09-10T18:11:30.273Z,13.50
2022-09-10T18:13:59.447Z,13.50
2022-09-10T18:16:29.637Z,13.50
2022-09-10T18:19:00.604Z,13.50
2022-09-10T18:21:31.305Z,13.50
2022-09-10T18:24:01.166Z,13.50
2022-09-10T18:26:31.041Z,13.50
2022-09-10T18:29:01.905Z,13.50
2022-09-10T18:31:32.201Z,13.40
2022-09-10T18:34:02.414Z,13.40
2022-09-10T18:36:31.457Z,13.40
2022-09-10T18:39:02.479Z,13.50
2022-09-10T18:41:32.570Z,13.50
2022-09-10T18:44:04.002Z,13.50
2022-09-10T18:46:32.971Z,13.50
2022-09-10T18:49:02.653Z,13.50
2022-09-10T18:51:31.542Z,13.50
2022-09-10T18:54:01.488Z,13.60
2022-09-10T18:56:31.607Z,13.60
2022-09-10T18:59:01.438Z,13.60
2022-09-10T19:01:30.960Z,13.60
2022-09-10T19:03:59.133Z,13.60
2022-09-10T19:06:29.968Z,13.60
2022-09-10T19:09:00.605Z,13.60
2022-09-10T19:11:32.949Z,13.60
2022-09-10T19:14:02.219Z,13.70
2022-09-10T19:16:31.930Z,13.60
2022-09-10T19:19:01.628Z,13.70
2022-09-10T19:21:32.780Z,13.70
2022-09-10T19:24:01.579Z,13.70
2022-09-10T19:26:31.440Z,13.80
2022-09-10T19:29:00.979Z,13.80
2022-09-10T19:31:30.759Z,13.90
2022-09-10T19:33:59.771Z,13.90
2022-09-10T19:36:30.818Z,13.90
2022-09-10T19:38:59.474Z,13.80
2022-09-10T19:41:27.593Z,13.80
2022-09-10T19:43:56.331Z,13.80
2022-09-10T19:46:28.167Z,13.80
2022-09-10T19:48:59.302Z,13.80
2022-09-10T19:51:28.943Z,13.80
2022-09-10T19:53:59.434Z,13.80
2022-09-10T19:56:31.210Z,13.90
2022-09-10T19:58:59.667Z,13.90
2022-09-10T20:01:31.181Z,14.00
2022-09-10T20:04:01.667Z,14.10
2022-09-10T20:06:30.413Z,14.00
2022-09-10T20:09:00.073Z,14.00
2022-09-10T20:11:29.909Z,13.90
2022-09-10T20:13:59.776Z,13.90
2022-09-10T20:16:28.051Z,13.80
2022-09-10T20:18:56.675Z,13.70
2022-09-10T20:21:26.854Z,13.60
2022-09-10T20:23:56.483Z,13.60
2022-09-10T20:26:27.327Z,13.60
2022-09-10T20:28:57.267Z,13.60
2022-09-10T20:31:27.057Z,13.60
2022-09-10T20:33:57.204Z,13.50
2022-09-10T20:36:26.709Z,13.50
2022-09-10T20:38:55.686Z,13.40
2022-09-10T20:41:29.993Z,13.40
2022-09-10T20:43:59.440Z,13.40
2022-09-10T20:46:29.066Z,13.40
2022-09-10T20:49:02.739Z,13.50
2022-09-10T20:51:32.781Z,13.50
2022-09-10T20:54:00.724Z,13.50
2022-09-10T20:56:30.319Z,13.60
2022-09-10T20:58:58.649Z,13.60
2022-09-10T21:01:28.313Z,13.60
2022-09-10T21:03:59.453Z,13.60
2022-09-10T21:06:29.344Z,13.70
2022-09-10T21:08:57.272Z,13.70
2022-09-10T21:11:26.749Z,13.70
2022-09-10T21:13:57.961Z,13.80
2022-09-10T21:16:27.987Z,13.90
2022-09-10T21:18:57.392Z,14.00
2022-09-10T21:21:27.857Z,14.00
2022-09-10T21:23:57.786Z,14.00
2022-09-10T21:26:27.425Z,14.00
2022-09-10T21:28:58.542Z,14.00
2022-09-10T21:31:27.168Z,14.00
2022-09-10T21:34:00.648Z,14.00
2022-09-10T21:36:30.637Z,14.00
2022-09-10T21:39:00.213Z,13.90
2022-09-10T21:41:32.118Z,13.90
2022-09-10T21:44:03.585Z,13.90
2022-09-10T21:46:32.243Z,13.80
2022-09-10T21:49:00.391Z,13.80
2022-09-10T21:51:28.411Z,13.70
2022-09-10T21:53:58.246Z,13.70
2022-09-10T21:56:27.799Z,13.70
2022-09-10T21:58:56.784Z,13.70
2022-09-10T22:01:28.447Z,13.70
2022-09-10T22:03:57.874Z,13.60
2022-09-10T22:06:27.910Z,13.60
2022-09-10T22:08:58.370Z,13.70
2022-09-10T22:11:30.082Z,13.70
2022-09-10T22:14:01.006Z,13.60
2022-09-10T22:16:31.990Z,13.60
2022-09-10T22:19:01.438Z,13.60
2022-09-10T22:21:29.516Z,13.60
2022-09-10T22:23:57.557Z,13.70
2022-09-10T22:26:29.077Z,13.60
2022-09-10T22:28:59.332Z,13.60
2022-09-10T22:31:29.174Z,13.60
2022-09-10T22:34:00.562Z,13.60
2022-09-10T22:36:31.649Z,13.60
2022-09-10T22:39:01.111Z,13.70
2022-09-10T22:41:31.449Z,13.70
2022-09-10T22:43:59.377Z,13.70
2022-09-10T22:46:29.264Z,13.70
2022-09-10T22:48:58.628Z,13.70
2022-09-10T22:51:28.556Z,13.60
2022-09-10T22:53:57.642Z,13.60
2022-09-10T22:56:27.054Z,13.60
2022-09-10T22:58:56.084Z,13.60
2022-09-10T23:01:25.805Z,13.60
2022-09-10T23:03:55.409Z,13.50
2022-09-10T23:06:26.601Z,13.50
2022-09-10T23:08:56.334Z,13.50
2022-09-10T23:11:26.057Z,13.50
2022-09-10T23:13:56.777Z,13.50
2022-09-10T23:16:27.214Z,13.50
2022-09-10T23:18:56.460Z,13.50
2022-09-10T23:21:28.081Z,13.40
2022-09-10T23:23:58.520Z,13.40
2022-09-10T23:26:26.822Z,13.40
2022-09-10T23:28:55.558Z,13.50
2022-09-10T23:31:26.106Z,13.40
2022-09-10T23:33:55.818Z,13.50
2022-09-10T23:36:25.636Z,13.50
2022-09-10T23:38:53.514Z,13.50
2022-09-10T23:41:21.567Z,13.40
2022-09-10T23:43:49.393Z,13.40
2022-09-10T23:46:17.310Z,13.40
2022-09-10T23:48:45.826Z,13.40
2022-09-10T23:51:15.671Z,13.40
2022-09-10T23:53:45.942Z,13.40
2022-09-10T23:56:13.943Z,13.50
2022-09-10T23:58:41.916Z,13.40
